Dades meteomassalio
Diari Summary for Febrer 17, 2018 Units:  English    Metric   Both
« Previous Day
Next Day »
Diari Semanal Mensual Anual Personalitzat
  Maxima: Minima: Mijana:
Temperatura: TemperatureC °F 3.3 °F 9.6 °F
Rosada: DewpointC °F 1.7 °F 5.6 °F
Humitat: Humidity % 58 % 77 %
Velocitat del vent: WindSpeedKMH mph 0.0 mph 16.8 mph
Racha vent: WindSpeedGustKMH mph - -
Vent:- - NW
Pressio: PressurehPa in 1022.2 in -
Pluja: 0.5 in    
Historical Graphs
 
 
Tabular Data for Febrer 17, 2018
Time Temperature Dew Point Pressure Wind Wind Speed Wind Gust Humidity Rainfall Rate (Hourly) solar Conditions
TemperatureC °F DewpointC °F PressurehPa in Calm     Humidity % HourlyPrecipMM in SolarRadiationWatts/m^2 W/m2 Conditions
00:01 8.9 °F 7.2 °F 1023.9 in Calm     89 % 0.0 in 0.0 W/m2 CLR
00:06 8.9 °F 7.2 °F 1023.9 in Calm     89 % 0.0 in 0.0 W/m2 CLR
00:11 8.9 °F 7.2 °F 1023.9 in Calm     89 % 0.0 in 0.0 W/m2 CLR
00:16 8.9 °F 7.3 °F 1023.6 in Calm     90 % 0.3 in 0.0 W/m2 RA
00:21 8.9 °F 7.3 °F 1023.6 in Calm     90 % 0.3 in 0.0 W/m2 CLR
00:26 8.9 °F 7.3 °F 1023.6 in Calm     90 % 0.3 in 0.0 W/m2 CLR
00:31 8.9 °F 7.3 °F 1023.6 in Calm     90 % 0.3 in 0.0 W/m2 CLR
00:36 8.9 °F 7.5 °F 1023.6 in Calm     91 % 0.3 in 0.0 W/m2 CLR
00:41 8.9 °F 7.5 °F 1023.6 in Calm     91 % 0.3 in 0.0 W/m2 CLR
00:46 8.9 °F 7.5 °F 1023.6 in Calm     91 % 0.3 in 0.0 W/m2 CLR
00:51 8.9 °F 7.5 °F 1023.6 in Calm     91 % 0.3 in 0.0 W/m2 CLR
00:56 8.3 °F 6.9 °F 1023.6 in Calm     91 % 0.3 in 0.0 W/m2 CLR
01:01 8.3 °F 6.9 °F 1023.6 in Calm     91 % 0.3 in 0.0 W/m2 CLR
01:06 8.3 °F 6.9 °F 1023.6 in Calm     91 % 0.3 in 0.0 W/m2 CLR
01:11 8.3 °F 6.9 °F 1023.6 in Calm     91 % 0.3 in 0.0 W/m2 CLR
01:16 8.3 °F 6.9 °F 1023.6 in Calm     91 % 0.0 in 0.0 W/m2 CLR
01:21 8.3 °F 6.9 °F 1023.6 in Calm     91 % 0.0 in 0.0 W/m2 CLR
01:26 8.3 °F 6.9 °F 1023.6 in Calm     91 % 0.0 in 0.0 W/m2 CLR
01:31 8.3 °F 7.1 °F 1023.6 in Calm     92 % 0.0 in 0.0 W/m2 CLR
01:36 8.3 °F 7.1 °F 1023.6 in Calm     92 % 0.0 in 0.0 W/m2 CLR
01:41 8.3 °F 7.1 °F 1023.2 in Calm     92 % 0.0 in 0.0 W/m2 CLR
01:47 8.9 °F 7.7 °F 1023.2 in Calm     92 % 0.0 in 0.0 W/m2 CLR
01:52 8.3 °F 7.1 °F 1023.2 in Calm     92 % 0.0 in 0.0 W/m2 CLR
01:57 8.3 °F 7.1 °F 1023.2 in Calm     92 % 0.0 in 0.0 W/m2 CLR
02:02 8.3 °F 7.1 °F 1023.2 in Calm     92 % 0.0 in 0.0 W/m2 CLR
02:07 8.3 °F 7.1 °F 1023.2 in Calm     92 % 0.0 in 0.0 W/m2 CLR
02:12 8.3 °F 7.1 °F 1023.2 in Calm     92 % 0.0 in 0.0 W/m2 CLR
02:17 8.3 °F 7.1 °F 1023.2 in Calm     92 % 0.0 in 0.0 W/m2 CLR
02:22 8.9 °F 7.7 °F 1023.2 in Calm     92 % 0.0 in 0.0 W/m2 CLR
02:27 8.9 °F 7.7 °F 1022.9 in Calm     92 % 0.0 in 0.0 W/m2 CLR
02:32 8.9 °F 7.7 °F 1022.9 in Calm     92 % 0.0 in 0.0 W/m2 CLR
02:37 8.9 °F 7.7 °F 1022.9 in Calm     92 % 0.0 in 0.0 W/m2 CLR
02:42 8.9 °F 7.7 °F 1022.9 in Calm     92 % 0.0 in 0.0 W/m2 CLR
02:47 8.9 °F 7.7 °F 1022.9 in Calm     92 % 0.0 in 0.0 W/m2 CLR
02:52 8.9 °F 7.7 °F 1022.9 in Calm     92 % 0.0 in 0.0 W/m2 CLR
02:57 8.9 °F 7.7 °F 1022.9 in Calm     92 % 0.0 in 0.0 W/m2 CLR
03:02 8.9 °F 7.7 °F 1022.9 in Calm     92 % 0.0 in 0.0 W/m2 CLR
03:07 8.9 °F 7.7 °F 1022.9 in Calm     92 % 0.0 in 0.0 W/m2 CLR
03:12 8.9 °F 7.7 °F 1022.9 in Calm     92 % 0.0 in 0.0 W/m2 CLR
03:17 8.9 °F 7.7 °F 1022.9 in Calm     92 % 0.0 in 0.0 W/m2 CLR
03:22 8.9 °F 7.7 °F 1022.9 in Calm     92 % 0.0 in 0.0 W/m2 CLR
03:27 8.9 °F 7.7 °F 1022.9 in Calm     92 % 0.0 in 0.0 W/m2 CLR
03:32 8.3 °F 7.1 °F 1022.6 in Calm     92 % 0.0 in 0.0 W/m2 CLR
03:37 8.3 °F 7.1 °F 1022.6 in Calm     92 % 0.0 in 0.0 W/m2 CLR
03:42 8.3 °F 7.1 °F 1022.6 in Calm     92 % 0.0 in 0.0 W/m2 CLR
03:47 7.8 °F 6.6 °F 1022.6 in Calm     92 % 0.0 in 0.0 W/m2 CLR
03:52 7.8 °F 6.6 °F 1022.6 in Calm     92 % 0.0 in 0.0 W/m2 CLR
03:57 7.2 °F 6.0 °F 1022.6 in Calm     92 % 0.0 in 0.0 W/m2 CLR
04:02 7.2 °F 6.0 °F 1022.6 in Calm     92 % 0.0 in 0.0 W/m2 CLR
04:07 7.2 °F 6.0 °F 1022.6 in Calm     92 % 0.0 in 0.0 W/m2 CLR
04:12 6.7 °F 5.4 °F 1022.6 in Calm     92 % 0.0 in 0.0 W/m2 CLR
04:17 6.7 °F 5.4 °F 1022.6 in Calm     92 % 0.0 in 0.0 W/m2 CLR
04:22 6.7 °F 5.4 °F 1022.6 in Calm     92 % 0.0 in 0.0 W/m2 CLR
04:27 6.1 °F 4.9 °F 1022.6 in Calm     92 % 0.0 in 0.0 W/m2 CLR
04:32 6.1 °F 4.9 °F 1022.6 in Calm     92 % 0.0 in 0.0 W/m2 CLR
04:37 6.1 °F 4.9 °F 1022.6 in Calm     92 % 0.0 in 0.0 W/m2 CLR
04:42 5.6 °F 4.3 °F 1022.2 in Calm     92 % 0.0 in 0.0 W/m2 CLR
04:47 5.6 °F 4.3 °F 1022.2 in Calm     92 % 0.0 in 0.0 W/m2 CLR
04:52 5.6 °F 4.5 °F 1022.2 in Calm     93 % 0.0 in 0.0 W/m2 CLR
04:57 5.6 °F 4.5 °F 1022.2 in Calm     93 % 0.0 in 0.0 W/m2 CLR
05:02 5.6 °F 4.3 °F 1022.2 in Calm     92 % 0.0 in 0.0 W/m2 CLR
05:07 5.6 °F 4.3 °F 1022.2 in Calm     92 % 0.0 in 0.0 W/m2 CLR
05:12 5.6 °F 4.3 °F 1022.6 in Calm     92 % 0.0 in 0.0 W/m2 CLR
05:17 5.6 °F 4.5 °F 1022.6 in Calm     93 % 0.0 in 0.0 W/m2 CLR
05:22 5.0 °F 3.9 °F 1022.6 in Calm     93 % 0.0 in 0.0 W/m2 CLR
05:27 5.0 °F 3.9 °F 1022.6 in Calm     93 % 0.0 in 0.0 W/m2 CLR
05:32 5.0 °F 3.8 °F 1022.6 in Calm     92 % 0.0 in 0.0 W/m2 CLR
05:37 5.0 °F 3.9 °F 1022.6 in Calm     93 % 0.0 in 0.0 W/m2 CLR
05:42 5.0 °F 3.9 °F 1022.6 in Calm     93 % 0.0 in 0.0 W/m2 CLR
05:47 5.0 °F 3.8 °F 1022.6 in Calm     92 % 0.0 in 0.0 W/m2 CLR
05:52 5.0 °F 3.9 °F 1022.6 in Calm     93 % 0.0 in 0.0 W/m2 CLR
05:57 4.4 °F 3.4 °F 1022.6 in Calm     93 % 0.0 in 0.0 W/m2 CLR
06:02 4.4 °F 3.4 °F 1022.6 in Calm     93 % 0.0 in 0.0 W/m2 CLR
06:07 4.4 °F 3.4 °F 1022.9 in Calm     93 % 0.0 in 0.0 W/m2 CLR
06:12 4.4 °F 3.4 °F 1022.6 in Calm     93 % 0.0 in 0.0 W/m2 CLR
06:17 4.4 °F 3.4 °F 1022.6 in Calm     93 % 0.0 in 0.0 W/m2 CLR
06:22 4.4 °F 3.4 °F 1022.6 in Calm     93 % 0.0 in 0.0 W/m2 CLR
06:27 4.4 °F 3.4 °F 1022.9 in Calm     93 % 0.0 in 0.0 W/m2 CLR
06:32 4.4 °F 3.4 °F 1022.9 in Calm     93 % 0.3 in 0.0 W/m2 RA
06:37 3.9 °F 2.8 °F 1022.6 in Calm     93 % 0.3 in 0.0 W/m2
06:42 3.9 °F 2.8 °F 1022.6 in Calm     93 % 0.3 in 0.0 W/m2 CLR
06:47 3.9 °F 2.8 °F 1022.9 in Calm     93 % 0.3 in 0.0 W/m2 CLR
06:52 3.9 °F 2.8 °F 1022.9 in Calm     93 % 0.3 in 0.0 W/m2 CLR
06:57 3.9 °F 2.8 °F 1022.9 in Calm     93 % 0.3 in 0.0 W/m2 CLR
07:02 3.9 °F 2.8 °F 1022.9 in Calm     93 % 0.3 in 0.0 W/m2 CLR
07:07 3.9 °F 2.8 °F 1022.9 in Calm     93 % 0.3 in 0.0 W/m2 CLR
07:12 3.9 °F 2.8 °F 1022.9 in Calm     93 % 0.3 in 0.0 W/m2 CLR
07:17 3.3 °F 2.3 °F 1022.9 in Calm     93 % 0.3 in 0.0 W/m2 CLR
07:22 3.3 °F 2.3 °F 1022.9 in Calm     93 % 0.3 in 0.0 W/m2 CLR
07:27 3.9 °F 2.8 °F 1022.9 in Calm     93 % 0.3 in 0.0 W/m2 CLR
07:32 3.9 °F 2.8 °F 1022.9 in Calm     93 % 0.0 in 0.0 W/m2 CLR
07:37 4.4 °F 3.4 °F 1022.9 in Calm     93 % 0.0 in 0.0 W/m2 CLR
07:42 4.4 °F 3.4 °F 1023.2 in Calm     93 % 0.0 in 0.0 W/m2 OVC
07:52 5.0 °F 3.9 °F 1023.2 in Calm     93 % 0.0 in 0.0 W/m2 OVC
07:57 5.0 °F 3.9 °F 1023.2 in Calm     93 % 0.0 in 9.0 W/m2 BKN
08:02 5.6 °F 4.5 °F 1023.2 in Calm     93 % 0.0 in 14.0 W/m2 BKN
08:07 5.6 °F 4.5 °F 1023.2 in Calm     93 % 0.0 in 18.0 W/m2 BKN
08:12 5.6 °F 4.5 °F 1023.6 in Calm     93 % 0.0 in 21.0 W/m2 BKN
08:17 5.6 °F 4.5 °F 1023.6 in Calm     93 % 0.0 in 32.0 W/m2 BKN
08:22 5.6 °F 4.5 °F 1023.6 in Calm     93 % 0.0 in 39.0 W/m2 BKN
08:27 5.6 °F 4.5 °F 1023.6 in Calm     93 % 0.0 in 37.0 W/m2 BKN
08:32 6.1 °F 5.1 °F 1023.6 in Calm     93 % 0.0 in 30.0 W/m2 BKN
08:37 6.1 °F 5.1 °F 1023.9 in Calm     93 % 0.0 in 33.0 W/m2 BKN
08:42 6.1 °F 5.1 °F 1023.9 in Calm     93 % 0.0 in 40.0 W/m2 BKN
08:47 6.1 °F 5.1 °F 1023.9 in Calm     93 % 0.0 in 47.0 W/m2 SCT
08:52 6.7 °F 5.6 °F 1023.9 in Calm     93 % 0.0 in 47.0 W/m2 SCT
08:57 6.7 °F 5.6 °F 1023.9 in Calm     93 % 0.0 in 53.0 W/m2 SCT
09:02 6.7 °F 5.6 °F 1023.9 in Calm     93 % 0.0 in 60.0 W/m2 SCT
09:07 6.7 °F 5.8 °F 1023.9 in Calm     94 % 0.0 in 67.0 W/m2 SCT
09:12 7.2 °F 6.2 °F 1023.9 in Calm     93 % 0.0 in 51.0 W/m2 SCT
09:17 7.2 °F 6.2 °F 1023.9 in Calm     93 % 0.0 in 40.0 W/m2 SCT
09:22 7.2 °F 6.3 °F 1023.9 in Calm     94 % 0.0 in 30.0 W/m2 BKN
09:27 7.2 °F 6.3 °F 1023.9 in Calm     94 % 0.0 in 51.0 W/m2 BKN
09:32 7.8 °F 6.9 °F 1023.9 in Calm     94 % 0.0 in 86.0 W/m2 SCT
09:37 7.8 °F 6.7 °F 1023.9 in Calm     93 % 0.0 in 86.0 W/m2 FEW
09:42 7.8 °F 6.7 °F 1023.9 in Calm     93 % 0.0 in 76.0 W/m2 FEW
09:47 8.3 °F 7.4 °F 1023.9 in West 3.7 mph 3.7 mph 94 % 0.0 in 88.0 W/m2 FEW
09:52 8.3 °F 7.4 °F 1023.9 in Calm     94 % 0.0 in 93.0 W/m2 CLR
09:57 8.9 °F 8.0 °F 1024.3 in NW 14.8 mph 14.8 mph 94 % 0.0 in 91.0 W/m2 CLR
10:02 8.9 °F 8.0 °F 1024.3 in NW 13.0 mph 13.0 mph 94 % 0.0 in 70.0 W/m2 CLR
10:07 10.0 °F 8.8 °F 1024.3 in WNW 11.3 mph 11.3 mph 92 % 0.0 in 67.0 W/m2 FEW
10:12 10.0 °F 8.6 °F 1024.3 in NW 7.4 mph 7.4 mph 91 % 0.0 in 74.0 W/m2 FEW
10:18 10.6 °F 8.8 °F 1024.3 in NW 9.3 mph 9.3 mph 89 % 0.0 in 98.0 W/m2 FEW
10:23 11.1 °F 9.2 °F 1024.3 in NW 11.1 mph 11.1 mph 88 % 0.0 in 135.0 W/m2 CLR
10:28 11.7 °F 9.7 °F 1024.3 in NW 13.0 mph 13.0 mph 88 % 0.0 in 169.0 W/m2 CLR
10:33 11.7 °F 9.6 °F 1024.3 in NNW 16.1 mph 16.1 mph 87 % 0.0 in 162.0 W/m2 CLR
10:38 12.2 °F 10.1 °F 1024.6 in WNW 18.5 mph 18.5 mph 87 % 0.0 in 163.0 W/m2 CLR
10:43 12.2 °F 9.9 °F 1024.6 in NW 22.2 mph 22.2 mph 86 % 0.0 in 197.0 W/m2 CLR
10:48 12.8 °F 10.5 °F 1024.6 in NNW 31.5 mph 31.5 mph 86 % 0.0 in 227.0 W/m2 CLR
10:53 12.8 °F 10.3 °F 1024.6 in NNW 22.2 mph 22.2 mph 85 % 0.0 in 246.0 W/m2 CLR
10:58 12.8 °F 10.3 °F 1024.6 in NW 24.1 mph 24.1 mph 85 % 0.0 in 202.0 W/m2 CLR
11:03 12.8 °F 10.3 °F 1024.6 in North 16.1 mph 16.1 mph 85 % 0.0 in 214.0 W/m2 CLR
11:08 12.8 °F 10.2 °F 1024.6 in NW 31.5 mph 31.5 mph 84 % 0.0 in 230.0 W/m2 CLR
11:13 13.3 °F 10.7 °F 1024.6 in NW 24.1 mph 24.1 mph 84 % 0.0 in 241.0 W/m2 CLR
11:18 13.3 °F 10.5 °F 1024.6 in NNW 31.5 mph 31.5 mph 83 % 0.0 in 239.0 W/m2 CLR
11:23 13.3 °F 10.2 °F 1024.6 in NNW 31.5 mph 31.5 mph 81 % 0.0 in 359.0 W/m2 CLR
11:28 13.3 °F 10.2 °F 1024.6 in NNW 24.1 mph 24.1 mph 81 % 0.0 in 287.0 W/m2 CLR
11:33 13.3 °F 9.9 °F 1024.6 in North 24.1 mph 24.1 mph 80 % 0.0 in 216.0 W/m2 CLR
11:38 13.3 °F 9.8 °F 1024.6 in NNW 20.4 mph 20.4 mph 79 % 0.0 in 229.0 W/m2 CLR
11:43 13.3 °F 9.6 °F 1024.6 in NW 25.9 mph 25.9 mph 78 % 0.0 in 179.0 W/m2 CLR
11:48 13.3 °F 9.4 °F 1024.9 in NNW 33.3 mph 33.3 mph 77 % 0.0 in 204.0 W/m2 CLR
11:53 13.3 °F 9.2 °F 1024.9 in NW 33.3 mph 33.3 mph 76 % 0.0 in 214.0 W/m2 CLR
11:58 13.3 °F 9.0 °F 1024.6 in North 38.9 mph 38.9 mph 75 % 0.0 in 227.0 W/m2 CLR
12:03 13.3 °F 8.8 °F 1024.9 in NNW 31.5 mph 31.5 mph 74 % 0.0 in 255.0 W/m2 CLR
12:08 13.3 °F 8.8 °F 1024.9 in North 31.5 mph 31.5 mph 74 % 0.0 in 262.0 W/m2 CLR
12:13 13.3 °F 8.8 °F 1024.9 in NNW 27.8 mph 27.8 mph 74 % 0.0 in 258.0 W/m2 CLR
12:18 13.9 °F 9.3 °F 1024.9 in NNW 31.5 mph 31.5 mph 74 % 0.0 in 301.0 W/m2 CLR
12:23 13.9 °F 9.3 °F 1024.9 in NW 27.8 mph 27.8 mph 74 % 0.0 in 309.0 W/m2 CLR
12:28 13.9 °F 8.9 °F 1024.9 in NW 38.9 mph 38.9 mph 72 % 0.0 in 436.0 W/m2 CLR
12:33 14.4 °F 9.1 °F 1024.9 in NW 42.6 mph 42.6 mph 70 % 0.0 in 304.0 W/m2 CLR
12:38 13.9 °F 8.3 °F 1024.9 in NNW 42.6 mph 42.6 mph 69 % 0.0 in 308.0 W/m2 CLR
12:43 13.9 °F 8.5 °F 1024.9 in NW 37.0 mph 37.0 mph 70 % 0.0 in 334.0 W/m2 CLR
12:48 13.9 °F 8.7 °F 1024.9 in WNW 27.8 mph 27.8 mph 71 % 0.0 in 381.0 W/m2 CLR
12:53 13.9 °F 8.5 °F 1024.9 in NW 35.2 mph 35.2 mph 70 % 0.0 in 410.0 W/m2 CLR
12:58 13.9 °F 8.1 °F 1024.9 in NNW 29.6 mph 29.6 mph 68 % 0.0 in 366.0 W/m2 CLR
13:03 13.9 °F 8.3 °F 1024.9 in NNW 31.5 mph 31.5 mph 69 % 0.0 in 425.0 W/m2 CLR
13:08 14.4 °F 8.4 °F 1024.9 in NW 35.2 mph 35.2 mph 67 % 0.0 in 343.0 W/m2 CLR
13:13 13.9 °F 7.8 °F 1024.9 in NNW 35.2 mph 35.2 mph 67 % 0.0 in 355.0 W/m2 CLR
13:18 13.9 °F 8.1 °F 1024.9 in NNW 29.6 mph 29.6 mph 68 % 0.0 in 367.0 W/m2 CLR
13:23 13.9 °F 7.8 °F 1024.9 in NNW 38.9 mph 38.9 mph 67 % 0.0 in 364.0 W/m2 CLR
13:28 13.9 °F 7.4 °F 1024.9 in NW 38.9 mph 38.9 mph 65 % 0.0 in 246.0 W/m2 CLR
13:33 13.9 °F 7.6 °F 1024.9 in NNW 31.5 mph 31.5 mph 66 % 0.0 in 285.0 W/m2 CLR
13:38 13.9 °F 7.4 °F 1024.6 in NW 42.6 mph 42.6 mph 65 % 0.0 in 352.0 W/m2 CLR
13:43 13.9 °F 7.4 °F 1024.6 in NNW 40.7 mph 40.7 mph 65 % 0.0 in 330.0 W/m2 CLR
13:48 13.9 °F 7.2 °F 1024.6 in NW 37.0 mph 37.0 mph 64 % 0.0 in 257.0 W/m2 CLR
13:53 13.9 °F 7.2 °F 1024.6 in NW 37.0 mph 37.0 mph 64 % 0.0 in 276.0 W/m2 CLR
13:58 13.3 °F 6.9 °F 1024.6 in NNW 38.9 mph 38.9 mph 65 % 0.0 in 420.0 W/m2 CLR
14:03 14.4 °F 7.7 °F 1024.6 in NNW 37.0 mph 37.0 mph 64 % 0.0 in 578.0 W/m2 CLR
14:08 14.4 °F 7.5 °F 1024.6 in NNW 31.5 mph 31.5 mph 63 % 0.0 in 411.0 W/m2 CLR
14:13 14.4 °F 7.5 °F 1024.6 in NW 32.2 mph 32.2 mph 63 % 0.0 in 390.0 W/m2 CLR
14:18 14.4 °F 7.0 °F 1024.6 in NNW 38.9 mph 38.9 mph 61 % 0.0 in 454.0 W/m2 CLR
14:23 14.4 °F 7.0 °F 1024.6 in NNW 33.8 mph 33.8 mph 61 % 0.0 in 661.0 W/m2 CLR
14:28 15.0 °F 7.6 °F 1024.6 in NW 31.5 mph 31.5 mph 61 % 0.0 in 714.0 W/m2 CLR
14:33 15.0 °F 7.3 °F 1024.3 in NW 35.2 mph 35.2 mph 60 % 0.0 in 575.0 W/m2 CLR
14:38 15.0 °F 7.3 °F 1024.3 in NNW 25.9 mph 25.9 mph 60 % 0.0 in 693.0 W/m2 CLR
14:43 15.6 °F 7.6 °F 1024.3 in NW 42.6 mph 42.6 mph 59 % 0.0 in 591.0 W/m2 CLR
14:48 15.0 °F 7.3 °F 1024.3 in NW 31.5 mph 31.5 mph 60 % 0.0 in 432.0 W/m2 CLR
14:53 15.0 °F 7.1 °F 1024.3 in NNW 38.9 mph 38.9 mph 59 % 0.0 in 446.0 W/m2 CLR
14:58 14.4 °F 6.5 °F 1024.3 in NW 33.3 mph 33.3 mph 59 % 0.0 in 302.0 W/m2 CLR
15:03 14.4 °F 6.5 °F 1024.6 in NNW 37.0 mph 37.0 mph 59 % 0.0 in 367.0 W/m2 CLR
15:08 14.4 °F 6.8 °F 1024.6 in North 27.8 mph 27.8 mph 60 % 0.0 in 461.0 W/m2 CLR
15:13 15.0 °F 7.1 °F 1024.3 in NW 33.3 mph 33.3 mph 59 % 0.0 in 571.0 W/m2 CLR
15:18 15.0 °F 7.1 °F 1024.3 in NNW 27.8 mph 27.8 mph 59 % 0.0 in 338.0 W/m2 CLR
15:23 15.0 °F 7.1 °F 1024.3 in NNW 42.6 mph 42.6 mph 59 % 0.0 in 345.0 W/m2 CLR
15:28 14.4 °F 7.0 °F 1024.6 in NNW 27.8 mph 27.8 mph 61 % 0.0 in 322.0 W/m2 CLR
15:33 13.9 °F 6.2 °F 1024.3 in NNW 40.7 mph 40.7 mph 60 % 0.0 in 264.0 W/m2 CLR
15:38 13.9 °F 6.2 °F 1024.3 in NNW 33.3 mph 33.3 mph 60 % 0.0 in 188.0 W/m2 CLR
15:43 13.9 °F 6.5 °F 1024.3 in NNW 29.6 mph 29.6 mph 61 % 0.0 in 232.0 W/m2 CLR
15:49 13.9 °F 6.5 °F 1024.6 in NNW 35.2 mph 35.2 mph 61 % 0.0 in 216.0 W/m2 CLR
15:54 13.9 °F 6.2 °F 1024.6 in NNW 38.9 mph 38.9 mph 60 % 0.0 in 388.0 W/m2 CLR
15:59 13.9 °F 6.2 °F 1024.3 in NW 35.2 mph 35.2 mph 60 % 0.0 in 378.0 W/m2 CLR
16:04 13.9 °F 6.2 °F 1024.6 in NNW 31.5 mph 31.5 mph 60 % 0.0 in 176.0 W/m2 CLR
16:09 13.9 °F 6.5 °F 1024.6 in NNW 42.6 mph 42.6 mph 61 % 0.0 in 223.0 W/m2 CLR
16:14 13.3 °F 5.9 °F 1024.6 in NNW 40.7 mph 40.7 mph 61 % 0.0 in 211.0 W/m2 CLR
16:19 13.3 °F 6.2 °F 1024.6 in NW 31.5 mph 31.5 mph 62 % 0.0 in 225.0 W/m2 CLR
16:24 13.3 °F 6.2 °F 1024.6 in NNW 33.3 mph 33.3 mph 62 % 0.0 in 204.0 W/m2 CLR
16:29 13.3 °F 6.2 °F 1024.6 in NNW 33.3 mph 33.3 mph 62 % 0.0 in 186.0 W/m2 CLR
16:34 12.8 °F 5.9 °F 1024.6 in NW 33.8 mph 33.8 mph 63 % 0.0 in 169.0 W/m2 CLR
16:39 13.3 °F 6.2 °F 1024.6 in NNW 37.0 mph 37.0 mph 62 % 0.0 in 209.0 W/m2 CLR
16:44 12.8 °F 5.9 °F 1024.6 in NNW 31.5 mph 31.5 mph 63 % 0.0 in 165.0 W/m2 CLR
16:49 12.8 °F 5.9 °F 1024.6 in NW 31.5 mph 31.5 mph 63 % 0.0 in 151.0 W/m2 CLR
16:54 12.8 °F 5.9 °F 1024.6 in NNW 38.9 mph 38.9 mph 63 % 0.0 in 144.0 W/m2 CLR
16:59 12.8 °F 5.7 °F 1024.6 in NW 40.7 mph 40.7 mph 62 % 0.0 in 139.0 W/m2 CLR
17:04 12.8 °F 5.9 °F 1024.6 in WNW 31.5 mph 31.5 mph 63 % 0.0 in 132.0 W/m2 CLR
17:09 12.8 °F 5.9 °F 1024.6 in NW 40.7 mph 40.7 mph 63 % 0.0 in 135.0 W/m2 CLR
17:14 12.8 °F 5.7 °F 1024.6 in NW 42.6 mph 42.6 mph 62 % 0.0 in 134.0 W/m2 CLR
17:19 12.2 °F 5.4 °F 1024.9 in NW 37.0 mph 37.0 mph 63 % 0.0 in 113.0 W/m2 CLR
17:24 12.2 °F 5.4 °F 1024.6 in NNW 35.2 mph 35.2 mph 63 % 0.0 in 100.0 W/m2 CLR
17:29 12.2 °F 5.4 °F 1024.9 in NNW 32.2 mph 32.2 mph 63 % 0.0 in 79.0 W/m2 CLR
17:34 12.2 °F 5.6 °F 1024.9 in NNW 29.6 mph 29.6 mph 64 % 0.0 in 70.0 W/m2 FEW
17:39 12.2 °F 5.6 °F 1024.9 in NNW 31.5 mph 31.5 mph 64 % 0.0 in 62.0 W/m2 SCT
17:44 12.2 °F 5.6 °F 1024.9 in NW 29.6 mph 29.6 mph 64 % 0.0 in 54.0 W/m2 SCT
17:49 11.7 °F 5.1 °F 1024.9 in NW 25.9 mph 25.9 mph 64 % 0.0 in 49.0 W/m2 SCT
17:54 11.7 °F 5.1 °F 1024.9 in NW 33.3 mph 33.3 mph 64 % 0.0 in 44.0 W/m2 BKN
17:59 11.7 °F 5.1 °F 1025.3 in NW 35.2 mph 35.2 mph 64 % 0.0 in 39.0 W/m2 BKN
18:04 11.7 °F 5.1 °F 1025.3 in NW 27.8 mph 27.8 mph 64 % 0.0 in 33.0 W/m2 BKN
18:09 11.7 °F 5.1 °F 1025.3 in NW 29.6 mph 29.6 mph 64 % 0.0 in 30.0 W/m2 BKN
18:14 11.7 °F 5.1 °F 1025.3 in NW 33.3 mph 33.3 mph 64 % 0.0 in 25.0 W/m2 BKN
18:19 11.7 °F 5.1 °F 1025.3 in North 29.6 mph 29.6 mph 64 % 0.0 in 19.0 W/m2 BKN
18:24 11.1 °F 4.8 °F 1025.3 in NW 25.9 mph 25.9 mph 65 % 0.0 in 12.0 W/m2 BKN
18:29 11.1 °F 4.8 °F 1025.3 in NW 9.3 mph 9.3 mph 65 % 0.0 in 9.0 W/m2 BKN
18:34 11.1 °F 4.8 °F 1025.6 in NW 31.5 mph 31.5 mph 65 % 0.0 in 5.0 W/m2 OVC
18:39 11.1 °F 4.8 °F 1025.3 in NW 19.3 mph 19.3 mph 65 % 0.0 in 0.0 W/m2 OVC
18:44 11.1 °F 4.8 °F 1025.3 in NW 24.1 mph 24.1 mph 65 % 0.0 in 0.0 W/m2 OVC
18:49 11.1 °F 4.6 °F 1025.3 in NW 35.4 mph 35.4 mph 64 % 0.0 in 0.0 W/m2 CLR
18:54 11.1 °F 4.3 °F 1025.6 in NW 31.5 mph 31.5 mph 63 % 0.0 in 0.0 W/m2 CLR
18:59 11.1 °F 4.3 °F 1025.3 in NW 18.5 mph 18.5 mph 63 % 0.0 in 0.0 W/m2 CLR
19:04 11.1 °F 4.1 °F 1025.6 in NW 22.2 mph 22.2 mph 62 % 0.0 in 0.0 W/m2 CLR
19:09 11.1 °F 3.9 °F 1025.6 in NNW 24.1 mph 24.1 mph 61 % 0.0 in 0.0 W/m2 CLR
19:14 10.6 °F 3.3 °F 1025.6 in WNW 20.4 mph 20.4 mph 61 % 0.0 in 0.0 W/m2 CLR
19:19 10.6 °F 3.1 °F 1025.6 in NW 31.5 mph 31.5 mph 60 % 0.0 in 0.0 W/m2 CLR
19:24 10.6 °F 2.9 °F 1025.6 in NW 31.5 mph 31.5 mph 59 % 0.0 in 0.0 W/m2 CLR
19:29 10.6 °F 2.9 °F 1025.6 in NW 31.5 mph 31.5 mph 59 % 0.0 in 0.0 W/m2 CLR
19:34 10.6 °F 2.6 °F 1025.6 in NW 31.5 mph 31.5 mph 58 % 0.0 in 0.0 W/m2 CLR
19:39 10.6 °F 2.6 °F 1025.6 in NW 27.8 mph 27.8 mph 58 % 0.0 in 0.0 W/m2 CLR
19:44 10.6 °F 2.6 °F 1025.6 in WNW 25.9 mph 25.9 mph 58 % 0.0 in 0.0 W/m2 CLR
19:49 10.6 °F 2.6 °F 1025.6 in NW 31.5 mph 31.5 mph 58 % 0.0 in 0.0 W/m2 CLR
19:54 10.6 °F 2.6 °F 1025.6 in NW 24.1 mph 24.1 mph 58 % 0.0 in 0.0 W/m2 CLR
19:59 10.6 °F 2.6 °F 1026.0 in NW 20.4 mph 20.4 mph 58 % 0.0 in 0.0 W/m2 CLR
20:04 10.6 °F 2.9 °F 1026.0 in NNW 24.1 mph 24.1 mph 59 % 0.0 in 0.0 W/m2 CLR
20:09 10.6 °F 3.1 °F 1025.6 in NW 37.0 mph 37.0 mph 60 % 0.0 in 0.0 W/m2 CLR
20:14 10.6 °F 3.1 °F 1026.0 in NNW 33.3 mph 33.3 mph 60 % 0.0 in 0.0 W/m2 CLR
20:19 10.6 °F 3.3 °F 1026.0 in NW 25.9 mph 25.9 mph 61 % 0.0 in 0.0 W/m2 CLR
20:24 10.0 °F 2.8 °F 1026.0 in NNW 33.3 mph 33.3 mph 61 % 0.0 in 0.0 W/m2 CLR
20:29 10.0 °F 2.8 °F 1026.0 in WNW 31.5 mph 31.5 mph 61 % 0.0 in 0.0 W/m2 CLR
20:34 10.0 °F 2.8 °F 1026.0 in NW 29.6 mph 29.6 mph 61 % 0.0 in 0.0 W/m2 CLR
20:39 10.0 °F 2.8 °F 1026.0 in NW 31.5 mph 31.5 mph 61 % 0.0 in 0.0 W/m2 CLR
20:44 10.0 °F 3.1 °F 1026.0 in NW 27.8 mph 27.8 mph 62 % 0.0 in 0.0 W/m2 CLR
20:49 10.0 °F 3.1 °F 1026.0 in NNW 31.5 mph 31.5 mph 62 % 0.0 in 0.0 W/m2 CLR
20:54 9.4 °F 2.5 °F 1026.3 in NW 31.5 mph 31.5 mph 62 % 0.0 in 0.0 W/m2 CLR
20:59 9.4 °F 2.5 °F 1026.3 in NNW 27.4 mph 27.4 mph 62 % 0.0 in 0.0 W/m2 CLR
21:05 9.4 °F 2.3 °F 1026.6 in NW 31.5 mph 31.5 mph 61 % 0.0 in 0.0 W/m2 CLR
21:10 9.4 °F 2.3 °F 1026.6 in NNW 27.8 mph 27.8 mph 61 % 0.0 in 0.0 W/m2 CLR
21:14 9.4 °F 2.3 °F 1026.6 in NW 31.5 mph 31.5 mph 61 % 0.0 in 0.0 W/m2 CLR
21:20 9.4 °F 2.1 °F 1026.6 in NW 25.9 mph 25.9 mph 60 % 0.0 in 0.0 W/m2 CLR
21:25 9.4 °F 2.1 °F 1026.6 in NW 22.2 mph 22.2 mph 60 % 0.0 in 0.0 W/m2 CLR
21:30 8.9 °F 1.8 °F 1026.6 in NW 24.1 mph 24.1 mph 61 % 0.0 in 0.0 W/m2 CLR
21:35 8.9 °F 1.8 °F 1026.6 in NW 18.5 mph 18.5 mph 61 % 0.0 in 0.0 W/m2 CLR
21:40 8.9 °F 2.0 °F 1027.0 in NNW 27.8 mph 27.8 mph 62 % 0.0 in 0.0 W/m2 CLR
21:45 8.9 °F 2.0 °F 1027.0 in NW 17.7 mph 17.7 mph 62 % 0.0 in 0.0 W/m2 CLR
21:50 8.9 °F 2.0 °F 1027.0 in NW 27.8 mph 27.8 mph 62 % 0.0 in 0.0 W/m2 CLR
21:55 8.9 °F 2.0 °F 1027.0 in NW 24.1 mph 24.1 mph 62 % 0.0 in 0.0 W/m2 CLR
22:00 8.9 °F 2.2 °F 1027.0 in NW 22.2 mph 22.2 mph 63 % 0.0 in 0.0 W/m2 CLR
22:05 8.3 °F 1.7 °F 1027.0 in NW 20.4 mph 20.4 mph 63 % 0.0 in 0.0 W/m2 CLR
22:10 8.3 °F 1.7 °F 1027.0 in NNW 25.9 mph 25.9 mph 63 % 0.0 in 0.0 W/m2 CLR
22:15 8.3 °F 1.9 °F 1027.3 in NNW 22.5 mph 22.5 mph 64 % 0.0 in 0.0 W/m2 CLR
22:20 8.3 °F 1.9 °F 1027.3 in NW 24.1 mph 24.1 mph 64 % 0.0 in 0.0 W/m2 CLR
22:25 8.3 °F 1.9 °F 1027.0 in NW 25.9 mph 25.9 mph 64 % 0.0 in 0.0 W/m2 CLR
22:30 8.3 °F 2.1 °F 1027.3 in NW 19.3 mph 19.3 mph 65 % 0.0 in 0.0 W/m2 CLR
22:35 8.3 °F 2.1 °F 1027.3 in NW 18.5 mph 18.5 mph 65 % 0.0 in 0.0 W/m2 CLR
22:40 8.3 °F 2.1 °F 1027.3 in NW 25.9 mph 25.9 mph 65 % 0.0 in 0.0 W/m2 CLR
22:45 8.3 °F 2.1 °F 1027.3 in NW 20.9 mph 20.9 mph 65 % 0.0 in 0.0 W/m2 CLR
22:50 8.3 °F 2.1 °F 1027.3 in NW 20.4 mph 20.4 mph 65 % 0.0 in 0.0 W/m2 CLR
22:55 7.8 °F 1.8 °F 1027.3 in NW 20.4 mph 20.4 mph 66 % 0.0 in 0.0 W/m2 CLR
23:00 7.8 °F 1.8 °F 1027.3 in WNW 18.5 mph 18.5 mph 66 % 0.0 in 0.0 W/m2 CLR
23:05 7.8 °F 1.8 °F 1027.3 in WNW 18.5 mph 18.5 mph 66 % 0.0 in 0.0 W/m2 CLR
23:10 7.8 °F 1.8 °F 1027.7 in WNW 18.5 mph 18.5 mph 66 % 0.0 in 0.0 W/m2 CLR
23:15 7.8 °F 2.1 °F 1027.7 in WNW 16.7 mph 16.7 mph 67 % 0.0 in 0.0 W/m2 CLR
23:20 7.8 °F 2.1 °F 1027.7 in WNW 20.9 mph 20.9 mph 67 % 0.0 in 0.0 W/m2 CLR
23:25 7.2 °F 1.7 °F 1027.3 in WNW 29.6 mph 29.6 mph 68 % 0.0 in 0.0 W/m2 CLR
23:30 7.2 °F 1.7 °F 1027.3 in NW 14.8 mph 14.8 mph 68 % 0.0 in 0.0 W/m2 CLR
23:35 7.2 °F 1.9 °F 1027.3 in WNW 22.5 mph 22.5 mph 69 % 0.0 in 0.0 W/m2 CLR
23:40 7.2 °F 1.9 °F 1027.3 in NW 16.7 mph 16.7 mph 69 % 0.0 in 0.0 W/m2 CLR
23:45 7.2 °F 2.1 °F 1027.3 in NW 18.5 mph 18.5 mph 70 % 0.0 in 0.0 W/m2 CLR
23:50 7.2 °F 2.1 °F 1027.3 in NW 16.7 mph 16.7 mph 70 % 0.0 in 0.0 W/m2 CLR
23:55 7.2 °F 2.1 °F 1027.3 in West 18.5 mph 18.5 mph 70 % 0.0 in 0.0 W/m2 CLR
Lo Temps de Massalio
Compliments of Weather Underground - 1.25 mb